Time;durP1;ratioP1;P1;durP2;ratioP2;P2;SDS_P1;SDS_P2;PMS_P1;PMS_P2;Temp;Humidity;BMP_temperature;BMP_pressure;BME280_temperature;BME280_humidity;BME280_pressure;Samples;Min_cycle;Max_cycle;Signal;HPM_P1;HPM_P2
2022/06/08 00:00:55;;;;;;;1.13;1.08;;;14.50;99.90;;;;;;5063298;28;20036;-31
2022/06/08 00:03:27;;;;;;;1.63;1.00;;;14.40;99.90;;;;;;5069548;28;20036;-31
2022/06/08 00:05:53;;;;;;;2.38;1.00;;;14.40;99.90;;;;;;5067661;28;20379;-31
2022/06/08 00:08:19;;;;;;;0.90;0.90;;;14.40;99.90;;;;;;5074131;28;20023;-31
2022/06/08 00:10:45;;;;;;;0.60;0.60;;;14.50;99.90;;;;;;5062479;28;20036;-33
2022/06/08 00:13:12;;;;;;;2.58;0.80;;;14.50;99.90;;;;;;5067029;28;20501;-31
2022/06/08 00:15:38;;;;;;;1.13;0.88;;;14.50;99.90;;;;;;5067103;28;20382;-31
2022/06/08 00:18:05;;;;;;;1.25;1.23;;;14.50;99.90;;;;;;5071603;28;20028;-31
2022/06/08 00:20:31;;;;;;;1.50;0.93;;;14.50;99.90;;;;;;5062888;28;20126;-31
2022/06/08 00:22:58;;;;;;;6.17;1.30;;;14.50;99.90;;;;;;5066537;28;20039;-32
2022/06/08 00:25:24;;;;;;;0.88;0.88;;;14.50;99.90;;;;;;5073067;28;20079;-32
2022/06/08 00:27:49;;;;;;;1.02;0.95;;;14.50;99.90;;;;;;5067874;28;20056;-32
2022/06/08 00:30:15;;;;;;;1.50;1.00;;;14.50;99.90;;;;;;5068703;28;20409;-32
2022/06/08 00:32:40;;;;;;;1.95;0.73;;;14.50;99.90;;;;;;5062739;28;20528;-32
2022/06/08 00:35:07;;;;;;;0.80;0.80;;;14.50;99.90;;;;;;5060009;28;20430;-31
2022/06/08 00:37:33;;;;;;;1.40;0.95;;;14.50;99.90;;;;;;5069225;28;20024;-31
2022/06/08 00:39:58;;;;;;;0.80;0.80;;;14.50;99.90;;;;;;5057678;28;20028;-32
2022/06/08 00:42:25;;;;;;;0.80;0.80;;;14.60;99.90;;;;;;5068521;28;20532;-31
2022/06/08 00:44:56;;;;;;;3.05;0.88;;;14.60;99.90;;;;;;5068036;28;20108;-31
2022/06/08 00:47:26;;;;;;;0.82;0.82;;;14.60;99.90;;;;;;5061155;28;20021;-32
2022/06/08 00:49:59;;;;;;;2.45;1.00;;;14.50;99.90;;;;;;5065126;28;20111;-31
2022/06/08 00:52:26;;;;;;;1.20;1.10;;;14.50;99.90;;;;;;5068278;28;20508;-31
2022/06/08 00:54:57;;;;;;;1.30;0.90;;;14.40;99.90;;;;;;5072577;28;20036;-32
2022/06/08 00:57:25;;;;;;;0.77;0.77;;;14.40;99.90;;;;;;5068873;28;20118;-31
2022/06/08 00:59:59;;;;;;;0.90;0.90;;;14.40;99.90;;;;;;5065453;28;20063;-31
2022/06/08 01:02:25;;;;;;;3.10;1.58;;;14.40;99.90;;;;;;5059229;28;20032;-37
2022/06/08 01:05:33;;;;;;;1.33;0.93;;;14.40;99.90;;;;;;5068634;28;20051;-36
2022/06/08 01:08:03;;;;;;;1.23;1.10;;;14.40;99.90;;;;;;5065816;28;20047;-37
2022/06/08 01:10:35;;;;;;;1.23;1.13;;;14.40;99.90;;;;;;5074119;28;20075;-38
2022/06/08 01:13:04;;;;;;;1.05;1.05;;;14.40;99.90;;;;;;5067427;28;20036;-35
2022/06/08 01:15:32;;;;;;;1.05;1.05;;;14.30;99.90;;;;;;5068461;28;20032;-35
2022/06/08 01:17:57;;;;;;;0.80;0.80;;;14.40;99.90;;;;;;5070729;28;20051;-38
2022/06/08 01:20:24;;;;;;;1.00;1.00;;;14.40;99.90;;;;;;5066488;28;20048;-37
2022/06/08 01:22:50;;;;;;;1.90;0.90;;;14.40;99.90;;;;;;5067633;28;20093;-37
2022/06/08 01:25:16;;;;;;;0.80;0.80;;;14.40;99.90;;;;;;5070938;28;20032;-36
2022/06/08 01:28:07;;;;;;;3.40;1.20;;;14.40;99.90;;;;;;5073024;28;20028;-38
2022/06/08 01:30:56;;;;;;;1.58;0.88;;;14.40;99.90;;;;;;5072051;28;20079;-38
2022/06/08 01:33:54;;;;;;;2.55;1.10;;;14.40;99.90;;;;;;5070478;28;20055;-35
2022/06/08 01:36:37;;;;;;;;;;;14.40;99.90;;;;;;5077082;28;20048;-37
2022/06/08 01:39:16;;;;;;;1.00;1.00;;;14.40;99.90;;;;;;5073779;28;20614;-38
2022/06/08 01:42:21;;;;;;;1.48;1.38;;;14.40;99.90;;;;;;5069438;28;20726;-36
2022/06/08 01:48:02;;;;;;;4.40;1.33;;;14.40;99.90;;;;;;5063500;28;20550;-38
2022/06/08 01:50:45;;;;;;;1.30;1.20;;;14.40;99.90;;;;;;5069195;28;20021;-36
2022/06/08 01:53:17;;;;;;;1.25;1.15;;;14.40;99.90;;;;;;5066427;28;20021;-38
2022/06/08 01:55:54;;;;;;;1.40;1.30;;;14.30;99.90;;;;;;5069389;28;20096;-38
2022/06/08 01:58:48;;;;;;;1.63;1.52;;;14.30;99.90;;;;;;5068068;28;20385;-38
2022/06/08 02:01:24;;;;;;;1.67;1.30;;;14.30;99.90;;;;;;5063561;28;20733;-37
2022/06/08 02:04:15;;;;;;;2.65;1.30;;;14.30;99.90;;;;;;5074937;28;20107;-36
2022/06/08 02:06:48;;;;;;;1.30;1.30;;;14.20;99.90;;;;;;5070255;28;20050;-38
2022/06/08 02:09:33;;;;;;;1.40;1.30;;;14.20;99.90;;;;;;5069290;28;20081;-35
2022/06/08 02:12:04;;;;;;;2.72;1.55;;;14.20;99.90;;;;;;5067710;28;20039;-38
2022/06/08 02:15:17;;;;;;;1.88;1.42;;;14.30;99.90;;;;;;5072939;28;20471;-35
2022/06/08 02:17:54;;;;;;;1.80;1.20;;;14.30;99.90;;;;;;5061787;28;20118;-37
2022/06/08 02:20:29;;;;;;;1.20;1.10;;;14.30;99.90;;;;;;5077129;28;20040;-35
2022/06/08 02:23:19;;;;;;;1.30;1.20;;;14.30;99.90;;;;;;5066632;28;20032;-37
2022/06/08 02:25:54;;;;;;;1.30;1.20;;;14.20;99.90;;;;;;5072559;28;20111;-38
2022/06/08 02:28:25;;;;;;;1.60;1.50;;;14.20;99.90;;;;;;5067284;28;20033;-35
2022/06/08 02:31:00;;;;;;;1.45;1.35;;;14.20;99.90;;;;;;5064806;28;20094;-38
2022/06/08 02:36:19;;;;;;;1.83;1.10;;;14.20;99.90;;;;;;5064267;28;20132;-38
2022/06/08 02:39:03;;;;;;;1.33;1.23;;;14.20;99.90;;;;;;5071828;28;20026;-37
2022/06/08 02:41:31;;;;;;;3.63;1.60;;;14.20;99.90;;;;;;5059766;28;20040;-37
2022/06/08 02:44:01;;;;;;;1.30;1.30;;;14.20;99.90;;;;;;5072438;28;20025;-38
2022/06/08 02:46:39;;;;;;;1.75;1.40;;;14.20;99.90;;;;;;5062714;28;20031;-38
2022/06/08 02:49:07;;;;;;;3.47;1.42;;;14.20;99.90;;;;;;5070237;28;20098;-35
2022/06/08 02:51:33;;;;;;;1.52;1.42;;;14.20;99.90;;;;;;5074047;28;20085;-35
2022/06/08 02:54:06;;;;;;;3.25;1.45;;;14.10;99.90;;;;;;5071288;28;20044;-38
2022/06/08 02:56:46;;;;;;;2.47;1.40;;;14.20;99.90;;;;;;5059707;28;20021;-38
2022/06/08 02:59:53;;;;;;;1.30;1.20;;;14.20;99.90;;;;;;5071090;28;20226;-38
2022/06/08 03:02:23;;;;;;;1.60;1.50;;;14.10;99.90;;;;;;5054567;28;20048;-38
2022/06/08 03:05:22;;;;;;;1.38;1.25;;;14.10;99.90;;;;;;5069775;28;20119;-38
2022/06/08 03:08:19;;;;;;;1.50;1.40;;;14.00;99.90;;;;;;5065433;28;20036;-36
2022/06/08 03:10:46;;;;;;;1.52;1.20;;;14.00;99.90;;;;;;5062743;28;20055;-38
2022/06/08 03:13:21;;;;;;;1.45;1.35;;;13.90;99.90;;;;;;5069309;28;20082;-36
2022/06/08 03:15:57;;;;;;;1.80;1.30;;;13.90;99.90;;;;;;5065103;28;20064;-38
2022/06/08 03:18:23;;;;;;;1.52;1.15;;;13.90;99.90;;;;;;5063192;28;20031;-38
2022/06/08 03:20:49;;;;;;;1.88;1.77;;;13.80;99.90;;;;;;5066819;28;20131;-37
2022/06/08 03:23:15;;;;;;;1.60;1.40;;;13.80;99.90;;;;;;5071402;28;20037;-38
2022/06/08 03:25:41;;;;;;;1.33;1.20;;;13.80;99.90;;;;;;5063551;28;20040;-38
2022/06/08 03:28:07;;;;;;;1.88;1.65;;;13.80;99.90;;;;;;5070539;28;20460;-38
2022/06/08 03:30:33;;;;;;;4.18;1.63;;;13.80;99.90;;;;;;5062151;28;20099;-36
2022/06/08 03:32:58;;;;;;;1.70;1.50;;;13.80;99.90;;;;;;5065210;28;20169;-36
2022/06/08 03:35:24;;;;;;;2.08;1.63;;;13.70;99.90;;;;;;5067830;28;20032;-36
2022/06/08 03:37:50;;;;;;;4.13;2.83;;;13.70;99.90;;;;;;5066716;28;20499;-38
2022/06/08 03:40:15;;;;;;;3.35;1.50;;;13.60;99.90;;;;;;5066810;28;20043;-37
2022/06/08 03:42:41;;;;;;;3.47;1.85;;;13.50;99.90;;;;;;5068744;28;20025;-36
2022/06/08 03:45:08;;;;;;;2.17;1.70;;;13.50;99.90;;;;;;5078106;28;20026;-35
2022/06/08 03:47:39;;;;;;;2.58;1.52;;;13.50;99.90;;;;;;5059241;28;20032;-35
2022/06/08 03:50:09;;;;;;;1.77;1.67;;;13.50;99.90;;;;;;5070082;28;20038;-35
2022/06/08 03:52:38;;;;;;;3.17;1.48;;;13.60;99.90;;;;;;5071614;28;20039;-38
2022/06/08 03:55:06;;;;;;;1.58;1.35;;;13.60;99.90;;;;;;5068766;28;20485;-34
2022/06/08 03:57:33;;;;;;;1.60;1.50;;;13.60;99.90;;;;;;5066939;28;20725;-37
2022/06/08 04:00:00;;;;;;;1.30;1.15;;;13.40;99.90;;;;;;5072178;28;20031;-38
2022/06/08 04:02:27;;;;;;;1.08;1.00;;;13.20;99.90;;;;;;5072277;28;20417;-36
2022/06/08 04:04:53;;;;;;;1.08;1.08;;;12.80;99.90;;;;;;5075374;28;20028;-38
2022/06/08 04:07:19;;;;;;;1.50;1.10;;;12.80;99.90;;;;;;5074437;28;20481;-35
2022/06/08 04:09:45;;;;;;;1.30;1.20;;;12.80;99.90;;;;;;5066418;28;20024;-37
2022/06/08 04:12:11;;;;;;;1.20;1.10;;;12.90;99.90;;;;;;5069283;28;20059;-38
2022/06/08 04:14:37;;;;;;;1.73;1.23;;;13.00;99.90;;;;;;5069627;28;20024;-35
2022/06/08 04:17:03;;;;;;;1.38;1.27;;;13.20;99.90;;;;;;5066024;28;20061;-37
2022/06/08 04:19:30;;;;;;;1.70;1.27;;;13.30;99.90;;;;;;5069976;28;20035;-37
2022/06/08 04:21:55;;;;;;;2.75;1.60;;;13.40;99.90;;;;;;5073883;28;20063;-37
2022/06/08 04:24:23;;;;;;;2.88;1.60;;;13.60;99.90;;;;;;5067259;28;20521;-36
2022/06/08 04:26:49;;;;;;;2.53;1.70;;;13.70;99.90;;;;;;5066349;28;20036;-38
2022/06/08 04:29:16;;;;;;;1.65;1.55;;;13.70;99.90;;;;;;5071784;28;20024;-36
2022/06/08 04:31:42;;;;;;;1.65;1.30;;;13.80;99.90;;;;;;5059627;28;20401;-38
2022/06/08 04:34:09;;;;;;;3.45;1.75;;;13.80;99.90;;;;;;5071363;28;20025;-38
2022/06/08 04:36:36;;;;;;;2.53;1.55;;;13.70;99.90;;;;;;5075434;28;20040;-38
2022/06/08 04:39:04;;;;;;;1.77;1.25;;;13.90;99.90;;;;;;5072772;28;20028;-35
2022/06/08 04:41:32;;;;;;;1.38;1.27;;;13.70;99.90;;;;;;5073751;28;20572;-38
2022/06/08 04:43:57;;;;;;;4.65;1.55;;;13.70;99.90;;;;;;5074516;28;20028;-38
2022/06/08 04:46:23;;;;;;;3.10;1.63;;;13.80;99.90;;;;;;5071212;28;20020;-37
2022/06/08 04:48:49;;;;;;;1.60;1.50;;;13.90;99.90;;;;;;5060596;28;20523;-36
2022/06/08 04:51:16;;;;;;;1.40;1.30;;;14.00;99.90;;;;;;5070142;28;20397;-38
2022/06/08 04:53:43;;;;;;;2.05;1.83;;;14.00;99.90;;;;;;5067386;28;20031;-38
2022/06/08 04:56:09;;;;;;;2.55;1.48;;;14.00;99.90;;;;;;5072661;28;20055;-36
2022/06/08 04:58:35;;;;;;;1.70;1.60;;;14.30;99.90;;;;;;5073021;28;20036;-37
2022/06/08 05:01:02;;;;;;;1.67;1.58;;;14.50;99.90;;;;;;5077771;28;20046;-38
2022/06/08 05:03:30;;;;;;;1.77;1.30;;;14.60;99.90;;;;;;5070246;28;20068;-35
2022/06/08 05:05:57;;;;;;;2.60;1.73;;;14.60;99.90;;;;;;5069571;28;20037;-38
2022/06/08 05:08:23;;;;;;;1.67;1.58;;;14.60;99.90;;;;;;5074834;28;20036;-37
2022/06/08 05:10:50;;;;;;;3.38;2.10;;;14.70;99.90;;;;;;5068929;28;20031;-35
2022/06/08 05:13:17;;;;;;;2.17;1.98;;;14.80;99.90;;;;;;5067025;28;20033;-38
2022/06/08 05:15:45;;;;;;;2.55;1.60;;;14.90;99.90;;;;;;5072682;28;20024;-38
2022/06/08 05:18:12;;;;;;;1.73;1.60;;;15.00;99.90;;;;;;5075807;28;20059;-38
2022/06/08 05:20:40;;;;;;;2.40;1.65;;;15.10;99.90;;;;;;5069015;28;20123;-38
2022/06/08 05:23:08;;;;;;;2.07;1.40;;;15.40;99.90;;;;;;5071009;28;20048;-36
2022/06/08 05:25:38;;;;;;;1.88;1.40;;;15.50;99.90;;;;;;5075436;28;20027;-38
2022/06/08 05:28:06;;;;;;;1.70;1.60;;;15.40;99.90;;;;;;5079142;28;20032;-36
2022/06/08 05:30:33;;;;;;;2.53;1.73;;;15.40;99.90;;;;;;5066408;28;20055;-38
2022/06/08 05:33:00;;;;;;;1.50;1.40;;;15.50;99.90;;;;;;5063865;28;20563;-36
2022/06/08 05:35:26;;;;;;;1.98;1.60;;;15.50;99.90;;;;;;5064654;28;21007;-38
2022/06/08 05:37:52;;;;;;;3.10;2.00;;;15.60;99.90;;;;;;5072393;28;20041;-36
2022/06/08 05:40:20;;;;;;;2.97;1.50;;;15.70;99.90;;;;;;5070596;28;20460;-36
2022/06/08 05:42:45;;;;;;;2.92;1.48;;;15.90;99.90;;;;;;5073117;28;20429;-35
2022/06/08 05:45:24;;;;;;;2.30;1.60;;;16.00;99.90;;;;;;5071199;28;20089;-35
2022/06/08 05:47:50;;;;;;;;;;;16.20;99.90;;;;;;5069201;28;20024;-37
2022/06/08 05:50:16;;;;;;;1.38;1.27;;;16.10;99.90;;;;;;5062601;28;19939;-35
2022/06/08 05:52:42;;;;;;;2.20;1.40;;;16.40;99.90;;;;;;5073238;28;20029;-38
2022/06/08 05:55:09;;;;;;;2.15;1.40;;;16.30;99.90;;;;;;5072160;28;20031;-38
2022/06/08 05:57:36;;;;;;;1.60;1.50;;;16.00;99.90;;;;;;5078201;28;20036;-38
2022/06/08 06:00:06;;;;;;;2.15;1.40;;;16.20;99.90;;;;;;5070349;28;20048;-38
2022/06/08 06:02:31;;;;;;;2.47;1.70;;;16.50;99.90;;;;;;5069296;28;20576;-38
2022/06/08 06:04:57;;;;;;;2.15;1.73;;;16.50;99.90;;;;;;5075939;28;20115;-38
2022/06/08 06:07:23;;;;;;;2.78;1.83;;;16.50;99.90;;;;;;5072065;28;20035;-37
2022/06/08 06:09:48;;;;;;;2.75;1.60;;;16.50;99.90;;;;;;5066752;28;20024;-37
2022/06/08 06:12:14;;;;;;;2.53;1.50;;;16.60;99.90;;;;;;5073862;28;20044;-34
2022/06/08 06:14:40;;;;;;;3.25;1.60;;;16.70;99.90;;;;;;5071545;28;20474;-36
2022/06/08 06:17:05;;;;;;;2.20;1.38;;;16.70;99.90;;;;;;5077503;28;20477;-37
2022/06/08 06:19:31;;;;;;;1.65;1.50;;;16.60;99.90;;;;;;5064773;28;20052;-36
2022/06/08 06:21:57;;;;;;;2.80;1.50;;;16.60;99.90;;;;;;5073590;28;20048;-38
2022/06/08 06:24:22;;;;;;;2.42;1.42;;;16.50;99.90;;;;;;5070731;28;20028;-38
2022/06/08 06:26:48;;;;;;;2.95;1.60;;;16.70;99.90;;;;;;5071556;28;20081;-35
2022/06/08 06:29:15;;;;;;;2.72;1.67;;;16.90;99.90;;;;;;5074927;28;20108;-37
2022/06/08 06:31:46;;;;;;;3.75;1.83;;;16.90;99.90;;;;;;5064240;28;20405;-36
2022/06/08 06:34:13;;;;;;;2.47;1.38;;;17.10;99.90;;;;;;5068061;28;20036;-36
2022/06/08 06:36:39;;;;;;;7.22;1.85;;;17.10;99.90;;;;;;5066469;28;20409;-36
2022/06/08 06:39:05;;;;;;;4.32;1.50;;;17.30;99.90;;;;;;5068936;28;20037;-37
2022/06/08 06:41:31;;;;;;;1.83;1.38;;;17.40;99.90;;;;;;5070910;28;20047;-38
2022/06/08 06:43:57;;;;;;;4.10;1.75;;;17.70;99.90;;;;;;5072029;28;20031;-38
2022/06/08 06:46:23;;;;;;;2.22;1.40;;;17.70;99.90;;;;;;5070041;28;20027;-37
2022/06/08 06:48:49;;;;;;;1.55;1.20;;;17.70;99.90;;;;;;5073954;28;20033;-37
2022/06/08 06:51:14;;;;;;;4.13;1.50;;;17.80;99.90;;;;;;5071554;28;20037;-38
2022/06/08 06:53:40;;;;;;;2.13;1.50;;;18.00;99.90;;;;;;5069100;28;20032;-38
2022/06/08 06:56:08;;;;;;;3.75;1.30;;;18.00;99.90;;;;;;5062771;28;20087;-36
2022/06/08 06:58:34;;;;;;;2.05;1.40;;;18.20;99.90;;;;;;5069891;28;20043;-36
2022/06/08 07:01:00;;;;;;;1.83;1.58;;;17.80;99.90;;;;;;5066149;28;20134;-35
2022/06/08 07:03:26;;;;;;;1.83;1.40;;;18.00;99.90;;;;;;5057892;28;20061;-36
2022/06/08 07:05:54;;;;;;;3.58;1.40;;;18.20;99.90;;;;;;5073527;28;20024;-38
2022/06/08 07:08:20;;;;;;;1.30;1.20;;;18.00;99.90;;;;;;5077279;28;20455;-38
2022/06/08 07:11:32;;;;;;;2.97;1.50;;;17.90;99.90;;;;;;5070387;28;20112;-38
2022/06/08 07:13:31;;;;;;;2.88;1.33;;;17.90;99.90;;;;;;5072834;28;20033;-37
2022/06/08 07:15:56;;;;;;;2.33;1.50;;;18.00;99.90;;;;;;5071735;28;20039;-34
2022/06/08 07:18:22;;;;;;;2.08;1.38;;;18.30;99.90;;;;;;5071969;28;20025;-35
2022/06/08 07:20:47;;;;;;;1.77;1.20;;;18.60;99.90;;;;;;5069114;28;20413;-36
2022/06/08 07:23:13;;;;;;;2.35;1.17;;;19.10;99.90;;;;;;5061348;28;20033;-34
2022/06/08 07:25:39;;;;;;;1.80;1.13;;;19.10;94.30;;;;;;5069979;28;20095;-37
2022/06/08 07:28:05;;;;;;;3.97;1.30;;;19.10;95.90;;;;;;5070003;28;20035;-38
2022/06/08 07:30:31;;;;;;;1.67;1.40;;;19.10;94.40;;;;;;5066557;28;20366;-38
2022/06/08 07:32:57;;;;;;;1.38;1.27;;;19.30;99.60;;;;;;5070490;28;20036;-38
2022/06/08 07:35:23;;;;;;;1.83;1.35;;;19.60;98.30;;;;;;5076006;28;20551;-34
2022/06/08 07:37:48;;;;;;;8.15;1.48;;;19.50;94.90;;;;;;5063386;28;20477;-38
2022/06/08 07:40:15;;;;;;;1.20;1.20;;;19.30;94.80;;;;;;5071697;28;20028;-36
2022/06/08 07:42:40;;;;;;;2.08;1.40;;;19.40;94.30;;;;;;5072531;28;20054;-38
2022/06/08 07:45:09;;;;;;;2.22;1.40;;;19.50;96.60;;;;;;5064121;28;20028;-36
2022/06/08 07:49:36;;;;;;;3.53;1.17;;;19.20;95.50;;;;;;5069835;28;20516;-38
2022/06/08 07:50:20;;;;;;;1.05;0.77;;;19.50;93.90;;;;;;5058029;28;20031;-38
2022/06/08 07:52:45;;;;;;;1.63;1.42;;;19.20;93.10;;;;;;5075850;28;20040;-38
2022/06/08 07:55:11;;;;;;;1.95;0.95;;;19.20;95.20;;;;;;5075839;28;20029;-36
2022/06/08 07:57:37;;;;;;;1.23;1.02;;;19.60;92.30;;;;;;5070198;28;20366;-35
2022/06/08 08:00:05;;;;;;;1.95;1.10;;;19.80;92.10;;;;;;5061270;28;20029;-37
2022/06/08 08:02:30;;;;;;;2.22;1.10;;;20.10;92.80;;;;;;5069777;28;20075;-37
2022/06/08 08:04:56;;;;;;;2.58;1.40;;;20.10;77.80;;;;;;5075364;28;20490;-38
2022/06/08 08:07:22;;;;;;;1.83;1.10;;;20.10;89.80;;;;;;5071703;28;20051;-38
2022/06/08 08:09:49;;;;;;;1.95;1.00;;;20.60;90.40;;;;;;5069496;28;20029;-38
2022/06/08 08:12:16;;;;;;;3.35;1.20;;;20.80;83.00;;;;;;5074129;28;20038;-35
2022/06/08 08:14:41;;;;;;;3.28;1.10;;;20.70;85.60;;;;;;5073527;28;20040;-38
2022/06/08 08:17:07;;;;;;;1.60;1.05;;;20.80;83.40;;;;;;5068572;28;20036;-36
2022/06/08 08:19:33;;;;;;;7.18;1.30;;;20.70;80.80;;;;;;5074831;28;20457;-37
2022/06/08 08:21:59;;;;;;;2.95;1.55;;;19.50;68.70;;;;;;5064912;28;20135;-38
2022/06/08 08:24:25;;;;;;;2.67;1.48;;;19.80;86.50;;;;;;5065261;28;20111;-35
2022/06/08 08:26:51;;;;;;;3.67;0.90;;;20.50;75.50;;;;;;5065030;28;20422;-38
2022/06/08 08:29:17;;;;;;;1.33;1.10;;;20.60;75.20;;;;;;5069118;28;20524;-35
2022/06/08 08:31:43;;;;;;;1.00;0.88;;;20.90;74.50;;;;;;5068641;28;20120;-34
2022/06/08 08:34:09;;;;;;;1.48;0.93;;;20.80;61.90;;;;;;5067030;28;20173;-37
2022/06/08 08:36:35;;;;;;;1.95;0.90;;;20.80;65.30;;;;;;5069490;28;20025;-36
2022/06/08 08:39:01;;;;;;;0.88;0.80;;;20.70;62.60;;;;;;5068444;28;20181;-37
2022/06/08 08:44:41;;;;;;;3.60;0.98;;;21.00;68.70;;;;;;5066216;28;20078;-37
2022/06/08 08:47:34;;;;;;;2.22;1.10;;;21.40;60.10;;;;;;5061793;28;20029;-36
2022/06/08 08:50:14;;;;;;;1.33;0.60;;;21.10;61.30;;;;;;5062876;28;20040;-35
2022/06/08 08:52:57;;;;;;;1.10;0.90;;;20.80;53.10;;;;;;5070305;28;20085;-37
2022/06/08 08:55:35;;;;;;;1.40;0.80;;;21.40;62.70;;;;;;5064005;28;20033;-34
2022/06/08 08:58:07;;;;;;;2.75;0.80;;;21.80;61.00;;;;;;5067810;28;20482;-38
2022/06/08 09:00:51;;;;;;;1.85;0.98;;;21.80;51.80;;;;;;5065464;28;20492;-37
2022/06/08 09:03:21;;;;;;;1.15;0.80;;;21.80;48.90;;;;;;5065706;28;20033;-36
2022/06/08 09:05:49;;;;;;;1.70;0.98;;;21.60;50.70;;;;;;5063557;28;20056;-36
2022/06/08 09:08:16;;;;;;;;;;;22.10;54.50;;;;;;5069640;28;20025;-38
2022/06/08 09:10:43;;;;;;;1.10;0.50;;;22.40;61.00;;;;;;5065364;28;19912;-38
2022/06/08 09:13:43;;;;;;;0.60;0.60;;;22.60;51.10;;;;;;5072451;28;20470;-36
2022/06/08 09:16:09;;;;;;;3.00;1.17;;;22.60;49.70;;;;;;5050079;28;20087;-34
2022/06/08 09:18:41;;;;;;;1.15;0.60;;;22.90;48.90;;;;;;5075478;28;20048;-33
2022/06/08 09:21:29;;;;;;;0.93;0.60;;;22.00;45.90;;;;;;5075478;28;20123;-38
2022/06/08 09:24:06;;;;;;;1.23;0.60;;;22.20;48.00;;;;;;5060265;28;20033;-36
2022/06/08 09:26:34;;;;;;;2.47;0.75;;;22.30;46.40;;;;;;5063766;28;20446;-35
2022/06/08 09:29:21;;;;;;;1.55;0.70;;;22.80;48.60;;;;;;5069049;28;20400;-35
2022/06/08 09:31:47;;;;;;;1.48;0.70;;;22.60;46.80;;;;;;5060244;28;20044;-36
2022/06/08 09:34:33;;;;;;;2.17;0.90;;;22.90;49.80;;;;;;5073581;28;20504;-37
2022/06/08 09:37:08;;;;;;;0.98;0.70;;;22.10;45.20;;;;;;5066392;28;20024;-36
2022/06/08 09:39:35;;;;;;;2.13;1.00;;;21.30;46.40;;;;;;5073296;28;20024;-36
2022/06/08 09:42:17;;;;;;;0.83;0.80;;;21.80;47.60;;;;;;5071605;28;20090;-38
2022/06/08 09:44:58;;;;;;;0.75;0.68;;;22.50;49.00;;;;;;5075858;28;20270;-36
2022/06/08 09:53:52;;;;;;;2.33;0.80;;;23.50;48.50;;;;;;5072555;28;20044;-38
2022/06/08 09:56:32;;;;;;;2.58;0.90;;;23.80;46.40;;;;;;5081204;28;20031;-37
2022/06/08 09:59:19;;;;;;;0.98;0.65;;;23.90;46.20;;;;;;5076150;28;20060;-37
2022/06/08 10:02:09;;;;;;;2.33;0.90;;;24.10;45.10;;;;;;5074211;28;20093;-37
2022/06/08 10:04:58;;;;;;;2.15;0.77;;;23.70;48.50;;;;;;5067316;28;20282;-35
2022/06/08 10:07:46;;;;;;;1.60;0.90;;;23.70;47.40;;;;;;5067394;28;20044;-36
2022/06/08 10:10:24;;;;;;;0.80;0.80;;;23.60;45.10;;;;;;5069219;28;20024;-35
2022/06/08 10:12:49;;;;;;;0.82;0.80;;;23.30;45.20;;;;;;5075744;28;20027;-38
2022/06/08 10:15:49;;;;;;;0.95;0.70;;;23.00;44.00;;;;;;5074574;28;20498;-34
2022/06/08 10:18:35;;;;;;;1.65;0.70;;;23.20;48.20;;;;;;5070485;28;20039;-35
2022/06/08 10:21:10;;;;;;;1.60;0.90;;;23.30;47.50;;;;;;5072439;28;20048;-34
2022/06/08 10:24:00;;;;;;;2.50;0.90;;;23.10;48.50;;;;;;5071778;28;20024;-35
2022/06/08 10:27:07;;;;;;;2.13;0.95;;;22.60;49.90;;;;;;5069723;28;20829;-36
2022/06/08 10:29:32;;;;;;;6.63;1.30;;;22.40;50.50;;;;;;5066414;28;20028;-36
2022/06/08 10:32:22;;;;;;;1.30;0.80;;;22.40;53.30;;;;;;5070471;28;20040;-36
2022/06/08 10:34:54;;;;;;;2.63;0.90;;;22.30;50.80;;;;;;5071105;28;20038;-36
2022/06/08 10:37:30;;;;;;;2.08;1.20;;;21.90;54.70;;;;;;5068603;28;20478;-34
2022/06/08 10:39:57;;;;;;;1.50;0.87;;;21.80;56.10;;;;;;5066877;28;20532;-38
2022/06/08 10:42:39;;;;;;;1.23;0.65;;;21.60;55.50;;;;;;5071714;28;20073;-35
2022/06/08 10:45:30;;;;;;;1.00;0.77;;;21.70;55.80;;;;;;5066955;28;20481;-34
2022/06/08 10:48:03;;;;;;;0.90;0.90;;;22.20;51.50;;;;;;5069595;28;20040;-38
2022/06/08 10:50:36;;;;;;;5.30;1.27;;;22.40;51.30;;;;;;5064021;28;20016;-38
2022/06/08 10:56:32;;;;;;;1.75;0.88;;;22.40;53.00;;;;;;5065117;28;20507;-36
2022/06/08 10:59:04;;;;;;;1.27;1.00;;;22.50;51.40;;;;;;5059214;28;20669;-37
2022/06/08 11:01:52;;;;;;;1.30;1.02;;;21.70;53.30;;;;;;5064610;28;20032;-37
2022/06/08 11:04:32;;;;;;;1.80;0.95;;;21.70;49.90;;;;;;5062621;28;20017;-37
2022/06/08 11:07:02;;;;;;;2.55;0.80;;;21.70;54.50;;;;;;5068765;28;20136;-37
2022/06/08 11:09:34;;;;;;;1.52;0.88;;;21.40;50.50;;;;;;5067082;28;20489;-38
2022/06/08 11:12:12;;;;;;;3.53;1.10;;;21.50;56.40;;;;;;5065572;28;20630;-36
2022/06/08 11:14:43;;;;;;;0.98;0.90;;;21.80;54.00;;;;;;5061822;28;20037;-37
2022/06/08 11:17:34;;;;;;;1.38;1.27;;;21.90;51.80;;;;;;5071067;28;20056;-36
2022/06/08 11:20:12;;;;;;;1.88;0.90;;;21.90;54.30;;;;;;5050291;28;20044;-34
2022/06/08 11:22:44;;;;;;;1.25;0.80;;;21.70;49.90;;;;;;5063228;28;20414;-37
2022/06/08 11:25:21;;;;;;;2.92;1.02;;;22.00;53.10;;;;;;5064472;28;20608;-37
2022/06/08 11:28:27;;;;;;;1.55;0.80;;;22.00;53.90;;;;;;5065448;28;20355;-37
2022/06/08 11:30:55;;;;;;;2.78;0.90;;;22.10;54.80;;;;;;5062686;28;20094;-37
2022/06/08 11:33:22;;;;;;;1.40;0.85;;;22.20;58.70;;;;;;5062604;28;20543;-37
2022/06/08 11:35:59;;;;;;;2.47;1.00;;;22.20;56.40;;;;;;5065035;28;20444;-35
2022/06/08 11:38:50;;;;;;;0.80;0.80;;;22.00;59.50;;;;;;5062455;28;20028;-35
2022/06/08 11:41:21;;;;;;;1.20;0.98;;;21.70;64.70;;;;;;5066383;28;20028;-36
2022/06/08 11:43:48;;;;;;;1.65;0.90;;;21.50;65.40;;;;;;5068529;28;20020;-35
2022/06/08 11:46:26;;;;;;;1.23;1.00;;;21.50;59.60;;;;;;5076124;28;20021;-37
2022/06/08 11:48:52;;;;;;;1.05;0.93;;;21.70;69.60;;;;;;5070657;28;20551;-36
2022/06/08 11:51:30;;;;;;;1.45;0.80;;;21.70;65.00;;;;;;5070216;28;20029;-37
2022/06/08 11:53:58;;;;;;;;;;;21.70;64.20;;;;;;5064924;28;20115;-35
2022/06/08 11:56:29;;;;;;;1.90;1.10;;;21.70;54.20;;;;;;5068697;28;19920;-38
2022/06/08 11:59:00;;;;;;;1.42;0.90;;;21.70;57.50;;;;;;5069497;28;20025;-35
2022/06/08 12:01:28;;;;;;;0.93;0.88;;;21.60;57.30;;;;;;5068708;28;20040;-37
2022/06/08 12:04:15;;;;;;;2.58;0.90;;;21.80;57.80;;;;;;5070654;28;20036;-38
2022/06/08 12:06:43;;;;;;;2.13;1.10;;;21.90;58.60;;;;;;5076708;28;20497;-34
2022/06/08 12:09:19;;;;;;;1.25;1.10;;;22.00;55.20;;;;;;5069401;28;20043;-34
2022/06/08 12:11:50;;;;;;;2.55;1.38;;;22.10;62.30;;;;;;5068699;28;20494;-35
2022/06/08 12:14:33;;;;;;;2.38;1.00;;;22.10;56.30;;;;;;5067582;28;20036;-37
2022/06/08 12:17:05;;;;;;;1.42;1.00;;;22.30;54.80;;;;;;5058532;28;20032;-38
2022/06/08 12:19:47;;;;;;;1.35;0.95;;;22.30;56.40;;;;;;5068765;28;20171;-36
2022/06/08 12:22:24;;;;;;;1.90;0.90;;;22.40;56.00;;;;;;5072879;28;20081;-36
2022/06/08 12:25:17;;;;;;;3.03;1.25;;;22.40;57.00;;;;;;5065654;28;20029;-35
2022/06/08 12:27:52;;;;;;;1.15;0.80;;;22.10;53.00;;;;;;5067564;28;20098;-36
2022/06/08 12:30:21;;;;;;;1.30;0.98;;;22.20;53.90;;;;;;5068260;28;20029;-36
2022/06/08 12:33:18;;;;;;;2.05;0.90;;;22.10;50.00;;;;;;5065369;28;20170;-37
2022/06/08 12:35:57;;;;;;;1.10;1.00;;;21.80;51.80;;;;;;5065020;28;20028;-38
2022/06/08 12:38:31;;;;;;;1.15;1.05;;;21.40;52.70;;;;;;5058870;28;20089;-37
2022/06/08 12:41:08;;;;;;;1.90;1.00;;;21.50;57.20;;;;;;5067508;28;20029;-35
2022/06/08 12:43:35;;;;;;;2.57;1.07;;;21.70;56.10;;;;;;5069603;28;20079;-35
2022/06/08 12:46:31;;;;;;;0.80;0.77;;;21.80;56.60;;;;;;5067103;28;20025;-36
2022/06/08 12:49:20;;;;;;;4.15;1.20;;;22.00;57.40;;;;;;5062307;28;20047;-34
2022/06/08 12:52:20;;;;;;;1.80;1.08;;;22.10;58.70;;;;;;5068540;28;20079;-37
2022/06/08 12:54:46;;;;;;;1.92;1.05;;;22.20;55.70;;;;;;5064260;28;20033;-35
2022/06/08 12:57:16;;;;;;;1.45;0.90;;;22.20;56.70;;;;;;5072088;28;20048;-37
2022/06/08 12:59:42;;;;;;;2.38;1.00;;;22.20;56.80;;;;;;5075996;28;20032;-35
2022/06/08 13:02:18;;;;;;;1.48;0.80;;;22.20;57.60;;;;;;5068122;28;20178;-38
2022/06/08 13:04:45;;;;;;;1.45;1.00;;;22.20;58.20;;;;;;5068273;28;20550;-37
2022/06/08 13:07:19;;;;;;;1.95;1.23;;;22.00;53.10;;;;;;5073024;28;20040;-34
2022/06/08 13:09:47;;;;;;;3.03;1.08;;;22.00;56.10;;;;;;5063827;28;20483;-37
2022/06/08 13:12:19;;;;;;;3.15;1.00;;;22.10;61.20;;;;;;5069080;28;20457;-35
2022/06/08 13:14:45;;;;;;;1.17;0.90;;;22.10;56.90;;;;;;5075160;28;20036;-37
2022/06/08 13:17:12;;;;;;;2.10;1.00;;;22.00;55.70;;;;;;5069240;28;20036;-36
2022/06/08 13:19:37;;;;;;;1.08;0.93;;;22.10;62.50;;;;;;5072957;28;20081;-37
2022/06/08 13:22:03;;;;;;;1.13;0.93;;;22.20;53.90;;;;;;5075253;28;20044;-35
2022/06/08 13:24:29;;;;;;;1.40;0.80;;;22.30;55.50;;;;;;5063607;28;20029;-37
2022/06/08 13:26:54;;;;;;;1.98;1.00;;;22.30;53.20;;;;;;5071616;28;20036;-38
2022/06/08 13:29:20;;;;;;;1.55;1.02;;;22.30;53.20;;;;;;5071862;28;20056;-37
2022/06/08 13:31:46;;;;;;;5.32;1.00;;;22.20;61.90;;;;;;5069117;28;20090;-36